createdAt,value
2022-09-26T00:03:39.550Z,10.74
2022-09-26T00:09:01.460Z,10.60
2022-09-26T00:14:28.994Z,10.47
2022-09-26T00:19:50.763Z,10.32
2022-09-26T00:25:12.597Z,10.30
2022-09-26T00:30:36.979Z,10.20
2022-09-26T00:35:58.872Z,10.08
2022-09-26T00:41:20.663Z,10.00
2022-09-26T00:46:47.718Z,9.87
2022-09-26T00:52:20.612Z,9.76
2022-09-26T00:57:46.888Z,9.70
2022-09-26T01:03:08.678Z,9.63
2022-09-26T01:08:39.473Z,9.61
2022-09-26T01:14:01.641Z,9.52
2022-09-26T01:19:36.808Z,9.35
2022-09-26T01:25:49.846Z,9.30
2022-09-26T01:31:22.412Z,9.27
2022-09-26T01:36:51.785Z,9.20
2022-09-26T01:42:40.452Z,9.15
2022-09-26T01:48:13.321Z,9.09
2022-09-26T01:53:39.687Z,9.08
2022-09-26T01:59:08.190Z,9.02
2022-09-26T02:04:37.958Z,8.97
2022-09-26T02:10:07.773Z,8.82
2022-09-26T02:15:32.744Z,8.46
2022-09-26T02:21:24.332Z,8.18
2022-09-26T02:26:46.354Z,8.12
2022-09-26T02:32:14.020Z,7.99
2022-09-26T02:37:35.923Z,7.98
2022-09-26T02:43:11.705Z,7.91
2022-09-26T02:48:48.617Z,7.80
2022-09-26T02:54:28.787Z,7.84
2022-09-26T03:00:20.161Z,7.93
2022-09-26T03:05:45.782Z,8.00
2022-09-26T03:11:09.668Z,7.81
2022-09-26T03:16:37.418Z,7.68
2022-09-26T03:21:59.631Z,7.71
2022-09-26T03:27:21.787Z,7.63
2022-09-26T03:32:43.742Z,7.64
2022-09-26T03:38:05.515Z,7.66
2022-09-26T03:43:27.369Z,7.68
2022-09-26T03:48:49.181Z,7.53
2022-09-26T03:54:12.452Z,7.67
2022-09-26T03:59:34.259Z,7.65
2022-09-26T04:04:55.989Z,7.67
2022-09-26T04:10:17.793Z,7.70
2022-09-26T04:15:39.559Z,7.62
2022-09-26T04:21:09.841Z,7.63
2022-09-26T04:26:31.933Z,7.60
2022-09-26T04:31:53.961Z,7.60
2022-09-26T04:37:15.758Z,7.64
2022-09-26T04:42:37.636Z,7.51
2022-09-26T04:47:59.405Z,7.57
2022-09-26T04:53:21.178Z,7.69
2022-09-26T04:58:43.981Z,7.72
2022-09-26T05:04:05.891Z,7.77
2022-09-26T05:09:27.667Z,7.97
2022-09-26T05:14:49.423Z,8.27
2022-09-26T05:20:11.209Z,8.34
2022-09-26T05:25:39.118Z,8.22
2022-09-26T05:31:00.895Z,8.47
2022-09-26T05:36:23.521Z,8.74
2022-09-26T05:41:45.303Z,9.02
2022-09-26T05:47:07.371Z,8.94
2022-09-26T05:52:29.165Z,9.06
2022-09-26T05:57:52.031Z,8.96
2022-09-26T06:03:14.579Z,9.09
2022-09-26T06:08:38.271Z,8.97
2022-09-26T06:14:00.045Z,9.48
2022-09-26T06:19:23.073Z,9.63
2022-09-26T06:24:45.312Z,9.78
2022-09-26T06:30:10.527Z,9.60
2022-09-26T06:35:32.333Z,9.66
2022-09-26T06:40:54.224Z,9.45
2022-09-26T06:46:16.120Z,9.74
2022-09-26T06:51:38.081Z,10.11
2022-09-26T06:56:59.838Z,9.70
2022-09-26T07:02:21.718Z,9.86
2022-09-26T07:07:43.795Z,10.44
2022-09-26T07:13:07.351Z,10.97
2022-09-26T07:18:29.170Z,10.99
2022-09-26T07:23:50.937Z,11.85
2022-09-26T07:29:12.839Z,11.17
2022-09-26T07:34:34.641Z,11.57
2022-09-26T07:40:01.276Z,11.77
2022-09-26T07:45:29.451Z,12.67
2022-09-26T07:50:57.091Z,12.66
2022-09-26T07:56:18.839Z,13.25
2022-09-26T08:01:40.636Z,14.59
2022-09-26T08:07:02.484Z,14.53
2022-09-26T08:12:25.034Z,13.75
2022-09-26T08:17:46.785Z,15.22
2022-09-26T08:23:08.548Z,15.07
2022-09-26T08:28:30.439Z,15.63
2022-09-26T08:33:52.209Z,16.49
2022-09-26T08:39:14.079Z,18.78
2022-09-26T08:44:41.684Z,19.60
2022-09-26T08:50:23.317Z,18.32
2022-09-26T08:55:48.180Z,19.69
2022-09-26T09:01:24.949Z,18.19
2022-09-26T09:06:48.741Z,18.51
2022-09-26T09:12:32.093Z,20.14
2022-09-26T09:18:14.111Z,22.36
2022-09-26T09:24:09.740Z,22.72
2022-09-26T09:29:49.746Z,22.23
2022-09-26T09:35:18.728Z,22.95
2022-09-26T09:40:46.690Z,22.99
2022-09-26T09:46:18.269Z,22.89
2022-09-26T09:51:55.232Z,23.13
2022-09-26T09:57:52.499Z,21.59
2022-09-26T10:03:28.125Z,19.33
2022-09-26T10:08:50.178Z,18.92
2022-09-26T10:14:16.546Z,17.98
2022-09-26T10:19:41.374Z,18.16
2022-09-26T10:25:16.872Z,17.98
2022-09-26T10:30:47.878Z,17.52
2022-09-26T10:36:17.778Z,17.84
2022-09-26T10:41:42.061Z,17.88
2022-09-26T10:47:06.388Z,17.93
2022-09-26T10:52:34.581Z,18.41
2022-09-26T10:58:01.145Z,17.96
2022-09-26T11:03:39.660Z,17.85
2022-09-26T11:09:03.528Z,18.47
2022-09-26T11:14:28.638Z,18.94
2022-09-26T11:19:59.720Z,18.45
2022-09-26T11:25:29.196Z,18.38
2022-09-26T11:30:56.221Z,18.75
2022-09-26T11:36:44.279Z,18.64
2022-09-26T11:42:23.262Z,18.88
2022-09-26T11:48:03.236Z,18.69
2022-09-26T11:53:42.707Z,18.71
2022-09-26T11:59:19.494Z,18.63
2022-09-26T12:05:27.440Z,18.24
2022-09-26T12:10:58.684Z,18.48
2022-09-26T12:16:35.843Z,18.34
2022-09-26T12:22:42.969Z,19.00
2022-09-26T12:28:15.807Z,18.61
2022-09-26T12:33:49.689Z,18.53
2022-09-26T12:39:42.236Z,18.99
2022-09-26T12:45:35.776Z,18.95
2022-09-26T12:51:22.197Z,18.95
2022-09-26T12:57:21.214Z,19.19
2022-09-26T13:02:57.948Z,19.22
2022-09-26T13:08:35.052Z,19.57
2022-09-26T13:14:28.913Z,19.13
2022-09-26T13:20:11.339Z,19.45
2022-09-26T13:26:09.067Z,19.75
2022-09-26T13:31:39.234Z,19.29
2022-09-26T13:37:03.609Z,19.30
2022-09-26T13:42:45.158Z,19.31
2022-09-26T13:48:39.438Z,19.06
2022-09-26T13:54:17.789Z,19.15
2022-09-26T13:59:52.567Z,19.15
2022-09-26T14:05:20.372Z,19.22
2022-09-26T14:10:53.168Z,18.91
2022-09-26T14:16:26.946Z,19.07
2022-09-26T14:22:16.928Z,19.06
2022-09-26T14:27:38.714Z,19.23
2022-09-26T14:33:05.228Z,18.99
2022-09-26T14:38:26.906Z,18.25
2022-09-26T14:43:51.179Z,18.45
2022-09-26T14:49:21.501Z,18.34
2022-09-26T14:54:43.548Z,18.19
2022-09-26T15:00:39.662Z,18.21
2022-09-26T15:06:04.175Z,18.23
2022-09-26T15:11:32.009Z,18.38
2022-09-26T15:16:55.701Z,18.24
2022-09-26T15:22:21.009Z,18.27
2022-09-26T15:27:46.096Z,18.13
2022-09-26T15:33:16.509Z,18.09
2022-09-26T15:38:38.375Z,17.78
2022-09-26T15:44:01.123Z,17.90
2022-09-26T15:49:23.209Z,17.88
2022-09-26T15:54:45.179Z,17.78
2022-09-26T16:00:09.732Z,17.77
2022-09-26T16:05:33.421Z,17.67
2022-09-26T16:10:58.342Z,17.58
2022-09-26T16:16:46.402Z,17.41
2022-09-26T16:22:26.605Z,17.35
2022-09-26T16:27:57.151Z,17.41
2022-09-26T16:33:33.834Z,17.25
2022-09-26T16:39:01.566Z,17.01
2022-09-26T16:44:33.623Z,16.98
2022-09-26T16:49:56.971Z,16.86
2022-09-26T16:55:19.354Z,16.73
2022-09-26T17:00:41.165Z,16.61
2022-09-26T17:06:02.919Z,16.37
2022-09-26T17:11:25.341Z,16.30
2022-09-26T17:16:50.592Z,16.12
2022-09-26T17:22:15.319Z,16.01
2022-09-26T17:27:37.107Z,15.90
2022-09-26T17:32:59.360Z,15.91
2022-09-26T17:38:21.376Z,15.92
2022-09-26T17:43:43.624Z,15.88
2022-09-26T17:49:12.037Z,15.89
2022-09-26T17:54:36.781Z,15.85
2022-09-26T18:00:02.292Z,15.87
2022-09-26T18:05:26.675Z,15.86
2022-09-26T18:10:52.462Z,15.86
2022-09-26T18:16:14.835Z,15.74
2022-09-26T18:21:36.876Z,15.74
2022-09-26T18:26:59.603Z,15.72
2022-09-26T18:32:27.700Z,15.62
2022-09-26T18:37:54.069Z,15.52
2022-09-26T18:43:22.513Z,15.36
2022-09-26T18:48:45.925Z,15.32
2022-09-26T18:54:16.297Z,15.21
2022-09-26T18:59:38.501Z,15.17
2022-09-26T19:05:02.667Z,14.97
2022-09-26T19:10:24.556Z,14.82
2022-09-26T19:15:46.468Z,14.70
2022-09-26T19:21:17.725Z,14.78
2022-09-26T19:26:42.731Z,14.51
2022-09-26T19:32:06.463Z,14.43
2022-09-26T19:37:28.619Z,14.25
2022-09-26T19:42:51.483Z,14.10
2022-09-26T19:48:19.488Z,13.93
2022-09-26T19:53:41.316Z,13.82
2022-09-26T19:59:03.199Z,13.76
2022-09-26T20:04:25.072Z,13.80
2022-09-26T20:09:47.287Z,13.78
2022-09-26T20:15:09.347Z,13.74
2022-09-26T20:20:31.377Z,13.65
2022-09-26T20:25:54.653Z,13.58
2022-09-26T20:31:27.596Z,13.56
2022-09-26T20:36:50.931Z,13.47
2022-09-26T20:42:17.135Z,13.48
2022-09-26T20:47:38.932Z,13.49
2022-09-26T20:53:00.776Z,13.56
2022-09-26T20:58:22.937Z,13.41
2022-09-26T21:03:53.482Z,13.40
2022-09-26T21:09:19.697Z,13.28
2022-09-26T21:14:41.964Z,13.16
2022-09-26T21:20:04.096Z,13.13
2022-09-26T21:25:29.192Z,13.03
2022-09-26T21:30:51.127Z,12.98
2022-09-26T21:36:13.009Z,12.99
2022-09-26T21:41:36.042Z,12.92
2022-09-26T21:46:57.908Z,12.88
2022-09-26T21:52:27.613Z,12.85
2022-09-26T21:57:51.866Z,12.74
2022-09-26T22:03:13.824Z,12.85
2022-09-26T22:08:37.457Z,12.86
2022-09-26T22:13:59.273Z,12.77
2022-09-26T22:19:21.369Z,12.85
2022-09-26T22:24:43.167Z,12.79
2022-09-26T22:30:07.696Z,12.81
2022-09-26T22:35:29.465Z,12.78
2022-09-26T22:40:59.385Z,12.79
2022-09-26T22:46:21.386Z,12.62
2022-09-26T22:51:43.216Z,12.40
2022-09-26T22:57:05.076Z,12.50
2022-09-26T23:02:26.959Z,12.58
2022-09-26T23:07:52.405Z,12.49
2022-09-26T23:13:14.209Z,12.43
2022-09-26T23:18:37.807Z,12.24
2022-09-26T23:23:59.610Z,12.46
2022-09-26T23:29:21.384Z,12.36
2022-09-26T23:34:43.151Z,12.40
2022-09-26T23:40:05.410Z,12.30
2022-09-26T23:45:27.200Z,12.29
2022-09-26T23:50:49.063Z,12.25
2022-09-26T23:56:12.859Z,12.30
